Time;durP1;ratioP1;P1;durP2;ratioP2;P2;SDS_P1;SDS_P2;PMS_P1;PMS_P2;Temp;Humidity;BMP_temperature;BMP_pressure;BME280_temperature;BME280_humidity;BME280_pressure;Samples;Min_cycle;Max_cycle;Signal;HPM_P1;HPM_P2
2022/01/25 00:10:37;;;;;;;40.73;29.27;;;;;;;4.83;100.00;103499.66;5018992;28;20500;-77
2022/01/25 00:26:29;;;;;;;38.33;27.50;;;;;;;4.78;100.00;103483.13;5034659;28;20461;-84
2022/01/25 00:29:11;;;;;;;39.23;29.23;;;;;;;5.04;100.00;103513.41;5022437;28;20430;-86
2022/01/25 00:31:39;;;;;;;45.07;30.67;;;;;;;4.71;100.00;103463.16;5013287;28;20469;-85
2022/01/25 00:34:05;;;;;;;45.23;31.30;;;;;;;5.00;100.00;103511.88;5017011;28;20637;-84
2022/01/25 00:36:31;;;;;;;43.53;30.20;;;;;;;4.79;100.00;103497.25;5030787;28;20473;-84
2022/01/25 00:38:56;;;;;;;41.00;27.90;;;;;;;4.90;100.00;103508.09;5006890;28;20804;-84
2022/01/25 00:41:23;;;;;;;44.93;31.30;;;;;;;4.89;100.00;103515.22;5010309;28;20257;-83
2022/01/25 00:43:49;;;;;;;45.93;31.03;;;;;;;5.08;100.00;103525.53;5028296;28;20701;-86
2022/01/25 00:46:16;;;;;;;44.40;30.93;;;;;;;4.97;100.00;103510.25;5033390;28;20438;-86
2022/01/25 00:48:46;;;;;;;47.10;29.93;;;;;;;5.03;100.00;103477.09;5014199;28;20434;-84
2022/01/25 00:54:58;;;;;;;44.67;30.03;;;;;;;5.23;100.00;103507.75;5033183;28;20478;-85
2022/01/25 00:56:51;;;;;;;49.47;32.20;;;;;;;4.58;100.00;103449.81;5016937;28;21172;-85
2022/01/25 00:59:22;;;;;;;47.70;31.47;;;;;;;4.98;100.00;103504.00;5015079;28;20491;-84
2022/01/25 01:01:49;;;;;;;40.20;30.00;;;;;;;5.14;100.00;103503.00;5015160;28;20525;-84
2022/01/25 01:04:17;;;;;;;45.33;31.47;;;;;;;5.15;100.00;103505.59;5012856;28;20494;-84
2022/01/25 01:06:44;;;;;;;43.20;28.80;;;;;;;4.75;100.00;103472.69;5020146;28;20511;-86
2022/01/25 01:09:11;;;;;;;46.97;32.10;;;;;;;5.09;100.00;103507.75;5011070;28;20451;-85
2022/01/25 01:11:59;;;;;;;46.70;32.07;;;;;;;4.82;100.00;103446.53;5016413;28;20502;-85
2022/01/25 01:17:18;;;;;;;39.77;29.30;;;;;;;4.47;100.00;103399.97;5026728;28;20434;-84
2022/01/25 01:48:40;;;;;;;45.30;32.70;;;;;;;4.95;100.00;103484.72;5032909;28;20493;-85
2022/01/25 01:51:20;;;;;;;41.83;29.77;;;;;;;5.08;100.00;103479.47;5010387;28;20423;-85
2022/01/25 01:53:46;;;;;;;47.10;32.70;;;;;;;4.97;100.00;103480.13;5030096;28;20536;-85
2022/01/25 01:56:12;;;;;;;43.13;28.40;;;;;;;4.42;100.00;103372.81;5014532;28;20436;-84
2022/01/25 01:58:39;;;;;;;44.60;31.13;;;;;;;5.19;100.00;103482.28;5011595;28;20730;-84
2022/01/25 02:01:07;;;;;;;43.10;30.87;;;;;;;4.26;100.00;103377.41;5030649;28;20434;-83
2022/01/25 02:03:33;;;;;;;49.77;32.90;;;;;;;3.87;100.00;103317.81;5028602;28;20470;-85
2022/01/25 02:05:58;;;;;;;43.10;30.03;;;;;;;4.25;100.00;103357.06;5013081;28;20516;-84
2022/01/25 02:08:24;;;;;;;41.77;29.90;;;;;;;4.68;100.00;103428.78;5025707;28;20211;-84
2022/01/25 02:10:49;;;;;;;45.03;30.90;;;;;;;4.33;100.00;103351.28;5012984;28;20180;-84
2022/01/25 02:13:15;;;;;;;45.77;32.00;;;;;;;3.91;100.00;103342.38;5013989;28;20236;-84
2022/01/25 02:15:44;;;;;;;43.43;30.40;;;;;;;4.78;100.00;103455.69;5011899;28;20731;-84
2022/01/25 02:23:42;;;;;;;43.90;30.80;;;;;;;4.82;100.00;103463.34;5032012;28;20997;-85
2022/01/25 02:26:10;;;;;;;47.17;30.67;;;;;;;5.16;100.00;103475.34;5014931;28;20435;-86
2022/01/25 02:28:38;;;;;;;44.30;32.70;;;;;;;4.90;100.00;103452.25;5029064;28;20438;-86
2022/01/25 02:31:05;;;;;;;46.50;31.13;;;;;;;4.91;100.00;103459.25;5014896;28;20437;-86
2022/01/25 02:33:31;;;;;;;47.63;30.60;;;;;;;4.92;100.00;103475.13;5022496;28;20515;-85
2022/01/25 02:35:58;;;;;;;53.83;30.67;;;;;;;4.96;100.00;103443.88;5029004;28;20463;-85
2022/01/25 02:38:29;;;;;;;42.27;31.43;;;;;;;4.82;100.00;103487.28;5025226;28;20439;-85
2022/01/25 02:40:58;;;;;;;43.33;29.90;;;;;;;4.58;100.00;103427.69;5015340;28;20427;-85
2022/01/25 02:43:25;;;;;;;47.67;31.20;;;;;;;4.89;100.00;103443.41;5016062;28;20540;-85
2022/01/25 02:46:20;;;;;;;44.87;31.20;;;;;;;4.52;100.00;103421.78;5012075;28;20453;-85
2022/01/25 02:48:57;;;;;;;42.40;29.63;;;;;;;4.99;100.00;103475.59;5018531;28;20878;-85
2022/01/25 02:51:29;;;;;;;44.00;31.90;;;;;;;4.95;100.00;103469.63;5009306;28;20442;-86
2022/01/25 02:54:02;;;;;;;44.77;31.00;;;;;;;4.86;100.00;103472.88;5025044;28;20443;-86
2022/01/25 02:56:28;;;;;;;42.50;30.40;;;;;;;4.92;100.00;103451.19;4998521;28;20435;-84
2022/01/25 02:58:55;;;;;;;44.90;32.13;;;;;;;4.85;100.00;103468.47;5018215;28;20498;-85
2022/01/25 03:01:21;;;;;;;42.00;31.13;;;;;;;4.81;100.00;103472.28;5012597;28;20526;-85
2022/01/25 03:03:48;;;;;;;44.03;30.30;;;;;;;4.76;100.00;103474.38;5018764;28;20467;-85
2022/01/25 03:06:15;;;;;;;46.70;30.83;;;;;;;4.94;100.00;103464.38;5020931;28;20872;-85
2022/01/25 03:08:41;;;;;;;45.03;31.17;;;;;;;4.35;100.00;103375.97;5014361;28;20523;-85
2022/01/25 03:11:06;;;;;;;46.57;32.47;;;;;;;4.34;100.00;103390.19;5016273;28;20431;-85
2022/01/25 03:13:37;;;;;;;44.50;30.23;;;;;;;4.43;100.00;103398.47;5013782;28;20179;-85
2022/01/25 03:16:17;;;;;;;44.57;31.03;;;;;;;4.59;100.00;103424.06;5012601;28;20713;-84
2022/01/25 03:18:46;;;;;;;44.60;30.90;;;;;;;4.88;100.00;103449.66;5031506;28;20430;-84
2022/01/25 03:23:57;;;;;;;46.90;30.83;;;;;;;4.65;100.00;103451.09;5027322;28;20557;-86
2022/01/25 03:26:24;;;;;;;45.80;33.00;;;;;;;4.78;100.00;103458.34;5013513;28;20428;-85
2022/01/25 03:28:50;;;;;;;45.90;31.73;;;;;;;4.83;100.00;103458.88;5027131;28;20732;-85
2022/01/25 03:31:16;;;;;;;44.97;30.87;;;;;;;4.50;100.00;103402.41;4997071;28;20809;-85
2022/01/25 03:33:43;;;;;;;47.97;33.33;;;;;;;5.03;100.00;103455.81;5026863;28;20438;-86
2022/01/25 03:36:09;;;;;;;49.27;32.67;;;;;;;4.86;100.00;103459.56;5034715;28;20484;-85
2022/01/25 03:38:37;;;;;;;49.60;31.60;;;;;;;4.85;100.00;103457.84;5020508;28;20520;-85
2022/01/25 03:41:08;;;;;;;48.23;30.93;;;;;;;4.89;100.00;103418.59;5033689;28;20431;-85
2022/01/25 03:43:35;;;;;;;45.57;30.87;;;;;;;4.86;100.00;103443.59;5027429;28;20497;-86
2022/01/25 03:50:58;;;;;;;47.23;31.87;;;;;;;4.60;100.00;103447.03;5036440;28;20438;-85
2022/01/25 03:53:23;;;;;;;46.37;31.60;;;;;;;4.69;100.00;103428.72;5014104;28;20734;-84
2022/01/25 03:55:49;;;;;;;48.27;32.23;;;;;;;4.49;100.00;103422.00;5018861;28;20203;-84
2022/01/25 03:58:15;;;;;;;42.57;31.03;;;;;;;4.70;100.00;103451.69;5017540;28;20199;-85
2022/01/25 04:00:42;;;;;;;42.93;32.40;;;;;;;4.88;100.00;103438.19;5026267;28;20688;-85
2022/01/25 04:05:48;;;;;;;46.50;32.10;;;;;;;4.87;100.00;103445.31;5018233;28;20872;-84
2022/01/25 04:08:14;;;;;;;45.73;31.73;;;;;;;4.70;100.00;103434.88;5004921;28;20247;-85
2022/01/25 04:10:41;;;;;;;45.80;31.80;;;;;;;4.87;100.00;103449.78;5030559;28;20442;-86
2022/01/25 04:13:07;;;;;;;45.20;31.67;;;;;;;4.38;100.00;103365.16;5027599;28;20438;-86
2022/01/25 04:15:33;;;;;;;44.87;31.80;;;;;;;5.07;100.00;103457.34;5013465;28;20515;-85
2022/01/25 04:18:51;;;;;;;46.17;31.37;;;;;;;4.67;100.00;103421.78;5014239;28;20565;-85
2022/01/25 04:26:25;;;;;;;48.17;31.80;;;;;;;4.67;100.00;103422.63;5035291;28;20545;-84
2022/01/25 04:28:51;;;;;;;47.00;33.07;;;;;;;4.79;100.00;103405.03;5012991;28;20435;-85
2022/01/25 04:31:19;;;;;;;47.53;32.33;;;;;;;4.53;100.00;103354.38;5015550;28;20190;-86
2022/01/25 04:33:56;;;;;;;46.20;31.03;;;;;;;4.73;100.00;103402.78;5015691;28;20168;-85
2022/01/25 04:49:49;;;;;;;41.00;30.73;;;;;;;4.38;100.00;103342.06;5032145;28;20421;-87
2022/01/25 04:52:18;;;;;;;43.27;31.80;;;;;;;4.83;100.00;103434.94;5009905;28;20430;-85
2022/01/25 04:54:53;;;;;;;45.10;32.50;;;;;;;4.76;100.00;103438.00;5020496;28;20451;-85
2022/01/25 05:00:10;;;;;;;43.53;32.10;;;;;;;4.93;100.00;103428.09;5030755;28;20445;-86
2022/01/25 05:02:50;;;;;;;48.00;32.43;;;;;;;4.56;100.00;103377.25;5018719;28;20433;-86
2022/01/25 05:07:58;;;;;;;46.43;32.03;;;;;;;4.83;100.00;103426.97;5030085;28;20845;-85
2022/01/25 05:10:24;;;;;;;47.33;32.80;;;;;;;4.83;100.00;103441.16;5016248;28;20811;-85
2022/01/25 05:13:08;;;;;;;40.43;30.20;;;;;;;4.88;100.00;103440.84;5026281;28;20438;-85
2022/01/25 05:18:35;;;;;;;40.17;30.77;;;;;;;4.80;100.00;103397.91;5030552;28;21159;-85
2022/01/25 05:23:44;;;;;;;45.33;32.77;;;;;;;4.73;100.00;103430.22;5033827;28;20907;-86
2022/01/25 05:26:10;;;;;;;46.87;31.90;;;;;;;4.51;100.00;103393.53;5017732;28;20518;-86
2022/01/25 05:28:35;;;;;;;47.87;33.90;;;;;;;4.70;100.00;103422.44;5019989;28;20244;-87
2022/01/25 05:31:00;;;;;;;43.87;32.20;;;;;;;4.88;100.00;103435.50;5012274;28;20216;-86
2022/01/25 05:33:26;;;;;;;43.60;30.27;;;;;;;4.60;100.00;103408.03;5018847;28;20718;-87
2022/01/25 05:35:51;;;;;;;43.10;31.60;;;;;;;4.78;100.00;103450.38;5006858;28;20223;-87
2022/01/25 05:38:16;;;;;;;45.77;32.37;;;;;;;4.30;100.00;103347.88;5020272;28;20179;-86
2022/01/25 05:40:57;;;;;;;43.53;30.80;;;;;;;4.97;100.00;103424.28;5012173;28;20267;-85
2022/01/25 05:46:16;;;;;;;43.10;30.60;;;;;;;4.50;100.00;103402.41;5026416;28;20441;-86
2022/01/25 05:48:42;;;;;;;50.10;30.63;;;;;;;4.21;100.00;103324.53;5008588;28;20470;-85
2022/01/25 05:51:08;;;;;;;43.77;31.90;;;;;;;4.94;100.00;103441.28;5030477;28;20525;-84
2022/01/25 05:53:33;;;;;;;48.80;34.10;;;;;;;4.72;100.00;103439.16;5023468;28;20431;-84
2022/01/25 05:55:59;;;;;;;53.13;33.90;;;;;;;4.67;100.00;103440.41;5019509;28;20437;-85
2022/01/25 05:58:25;;;;;;;47.37;33.60;;;;;;;4.69;100.00;103441.16;5012287;28;20185;-84
2022/01/25 06:00:51;;;;;;;45.63;32.03;;;;;;;4.59;100.00;103453.31;5016092;28;20642;-84
2022/01/25 06:03:17;;;;;;;44.00;31.90;;;;;;;4.78;100.00;103448.56;5027708;28;20443;-85
2022/01/25 06:05:43;;;;;;;45.10;30.90;;;;;;;4.82;100.00;103450.06;5013256;28;20443;-84
2022/01/25 06:08:08;;;;;;;43.10;31.37;;;;;;;4.51;100.00;103414.78;5015610;28;20192;-84
2022/01/25 06:10:34;;;;;;;44.33;33.17;;;;;;;3.94;100.00;103308.53;5009513;28;20951;-85
2022/01/25 06:13:00;;;;;;;44.47;31.83;;;;;;;4.87;100.00;103450.63;5008430;28;20645;-85
2022/01/25 06:15:26;;;;;;;41.80;30.00;;;;;;;4.55;100.00;103404.81;5022925;23;20577;-76
2022/01/25 06:17:52;;;;;;;44.73;30.90;;;;;;;4.89;100.00;103446.06;4989196;28;20448;-75
2022/01/25 06:20:18;;;;;;;47.63;33.03;;;;;;;4.74;100.00;103452.34;4987555;28;20610;-76
2022/01/25 06:22:44;;;;;;;46.00;32.93;;;;;;;3.31;100.00;103222.13;4983478;28;20220;-76
2022/01/25 06:25:10;;;;;;;46.80;30.93;;;;;;;4.53;100.00;103404.03;4996281;28;20562;-76
2022/01/25 06:27:39;;;;;;;46.73;31.93;;;;;;;4.23;100.00;103375.78;5000500;28;20259;-75
2022/01/25 06:30:10;;;;;;;50.23;34.20;;;;;;;4.78;100.00;103448.56;4988809;28;20525;-75
2022/01/25 06:32:36;;;;;;;43.10;31.23;;;;;;;4.77;100.00;103449.47;5007325;28;20451;-75
2022/01/25 06:35:03;;;;;;;45.87;31.47;;;;;;;4.82;100.00;103455.38;5006751;28;20460;-75
2022/01/25 06:37:28;;;;;;;45.90;32.23;;;;;;;4.74;100.00;103431.94;5005314;28;20565;-75
2022/01/25 06:39:54;;;;;;;48.40;33.50;;;;;;;4.46;100.00;103398.25;5004002;28;20428;-80
2022/01/25 06:42:20;;;;;;;45.67;31.83;;;;;;;4.51;100.00;103369.59;4980344;28;20579;-77
2022/01/25 06:44:46;;;;;;;46.63;31.87;;;;;;;3.93;100.00;103300.63;5002905;28;20216;-77
2022/01/25 06:47:11;;;;;;;47.60;32.00;;;;;;;4.81;100.00;103447.50;5006037;28;20479;-76
2022/01/25 06:49:37;;;;;;;41.70;30.10;;;;;;;4.55;100.00;103391.50;5002992;28;20203;-77
2022/01/25 06:52:03;;;;;;;41.40;30.67;;;;;;;4.99;100.00;103449.84;5004539;28;20228;-76
2022/01/25 06:54:28;;;;;;;47.63;32.67;;;;;;;4.82;100.00;103455.38;4990871;28;20323;-77
2022/01/25 06:56:53;;;;;;;47.70;33.03;;;;;;;5.00;100.00;103450.69;4997508;28;20191;-75
2022/01/25 06:59:19;;;;;;;42.30;30.20;;;;;;;4.38;100.00;103358.03;5001764;28;20267;-76
2022/01/25 07:01:44;;;;;;;45.83;33.73;;;;;;;4.76;100.00;103448.63;5005155;28;20628;-76
2022/01/25 07:04:09;;;;;;;41.63;30.90;;;;;;;4.84;100.00;103444.66;5010221;28;20276;-76
2022/01/25 07:06:35;;;;;;;44.20;31.17;;;;;;;4.44;100.00;103372.72;4996176;28;20284;-75
2022/01/25 07:09:02;;;;;;;39.97;29.37;;;;;;;4.91;100.00;103443.28;4999570;28;20271;-75
2022/01/25 07:11:29;;;;;;;46.00;32.97;;;;;;;4.42;100.00;103351.56;5004349;28;20227;-75
2022/01/25 07:13:55;;;;;;;44.00;31.27;;;;;;;4.79;100.00;103423.66;4982673;28;20503;-76
2022/01/25 07:16:20;;;;;;;46.20;32.20;;;;;;;4.52;100.00;103416.47;4995664;28;20473;-75
2022/01/25 07:18:46;;;;;;;43.20;29.80;;;;;;;4.57;100.00;103408.22;4994163;28;20455;-77
2022/01/25 07:21:11;;;;;;;49.87;33.17;;;;;;;4.07;100.00;103308.59;5006768;28;20185;-74
2022/01/25 07:23:36;;;;;;;44.80;32.90;;;;;;;4.51;100.00;103376.69;5005709;28;20208;-77
2022/01/25 07:26:02;;;;;;;43.10;31.50;;;;;;;4.46;100.00;103398.25;5001486;28;20211;-77
2022/01/25 07:28:29;;;;;;;48.57;33.80;;;;;;;4.41;100.00;103407.47;5005706;28;20253;-78
2022/01/25 07:30:54;;;;;;;51.73;34.10;;;;;;;4.15;100.00;103351.47;5007493;28;20439;-77
2022/01/25 07:33:20;;;;;;;46.87;33.60;;;;;;;4.70;100.00;103441.03;5000446;28;20455;-76
2022/01/25 07:35:45;;;;;;;43.57;31.97;;;;;;;4.53;100.00;103438.59;4981196;28;20205;-76
2022/01/25 07:38:11;;;;;;;46.37;31.80;;;;;;;4.39;100.00;103380.97;4996112;28;21652;-77
2022/01/25 07:40:37;;;;;;;49.40;32.20;;;;;;;4.71;100.00;103436.56;5004014;28;20185;-77
2022/01/25 07:43:04;;;;;;;51.37;32.23;;;;;;;4.91;100.00;103436.16;5005107;28;20479;-75
2022/01/25 07:45:34;;;;;;;39.40;29.60;;;;;;;4.25;100.00;103311.91;5002576;28;20499;-75
2022/01/25 07:48:04;;;;;;;48.43;32.70;;;;;;;4.94;100.00;103443.09;5003066;28;20863;-75
2022/01/25 07:50:30;;;;;;;44.70;31.60;;;;;;;4.91;100.00;103445.94;5001917;28;20435;-76
2022/01/25 07:52:55;;;;;;;45.07;31.03;;;;;;;4.51;100.00;103388.19;4994731;28;20451;-76
2022/01/25 07:55:21;;;;;;;51.00;34.20;;;;;;;3.94;100.00;103303.22;4991566;28;20205;-76
2022/01/25 07:57:46;;;;;;;48.77;32.37;;;;;;;4.17;100.00;103335.47;4998335;28;20185;-76
2022/01/25 08:00:13;;;;;;;43.13;30.90;;;;;;;4.70;100.00;103442.84;4995252;28;20197;-76
2022/01/25 08:02:41;;;;;;;48.77;34.57;;;;;;;4.67;100.00;103412.00;5000546;28;20181;-76
2022/01/25 08:05:07;;;;;;;52.97;34.93;;;;;;;4.52;100.00;103428.91;4993045;28;20483;-76
2022/01/25 08:07:33;;;;;;;48.17;32.20;;;;;;;4.69;100.00;103404.78;4995866;28;20443;-78
2022/01/25 08:09:58;;;;;;;46.50;33.67;;;;;;;3.88;100.00;103332.81;5001563;28;20446;-77
2022/01/25 08:12:24;;;;;;;47.30;31.67;;;;;;;4.35;100.00;103378.63;5001248;28;20575;-77
2022/01/25 08:14:50;;;;;;;44.93;32.10;;;;;;;4.51;100.00;103387.31;5009126;28;20208;-77
2022/01/25 08:17:17;;;;;;;48.17;33.27;;;;;;;3.06;100.00;103164.41;5008688;28;20435;-77
2022/01/25 08:19:44;;;;;;;47.43;31.10;;;;;;;4.94;100.00;103459.06;5006531;28;20710;-77
2022/01/25 08:22:10;;;;;;;45.43;31.23;;;;;;;4.24;100.00;103324.34;5005294;28;20443;-77
2022/01/25 08:24:35;;;;;;;43.60;31.40;;;;;;;4.19;100.00;103314.94;4992929;28;20558;-77
2022/01/25 08:27:01;;;;;;;42.40;30.70;;;;;;;4.92;100.00;103437.03;5008524;28;20196;-77
2022/01/25 08:29:26;;;;;;;45.50;30.90;;;;;;;4.10;100.00;103321.69;5006776;28;20189;-76
2022/01/25 08:31:51;;;;;;;44.30;32.00;;;;;;;4.40;100.00;103373.88;5004763;28;20642;-77
2022/01/25 08:34:17;;;;;;;40.07;30.40;;;;;;;4.56;100.00;103384.38;5011257;28;20232;-76
2022/01/25 08:36:43;;;;;;;48.97;34.47;;;;;;;5.05;100.00;103445.94;5010117;28;20189;-76
2022/01/25 08:39:08;;;;;;;49.27;35.10;;;;;;;4.10;100.00;103288.97;5011182;28;21027;-77
2022/01/25 08:41:34;;;;;;;47.37;30.83;;;;;;;4.91;100.00;103432.66;4997226;28;20821;-77
2022/01/25 08:44:00;;;;;;;44.73;33.43;;;;;;;4.84;100.00;103434.88;5007008;28;20259;-77
2022/01/25 08:46:25;;;;;;;44.13;31.30;;;;;;;3.96;100.00;103277.41;5006996;28;20482;-76
2022/01/25 08:48:51;;;;;;;47.73;32.77;;;;;;;4.60;100.00;103408.03;5004363;28;20200;-76
2022/01/25 08:51:17;;;;;;;44.43;30.90;;;;;;;4.96;100.00;103452.69;5002935;28;20280;-76
2022/01/25 08:53:43;;;;;;;47.23;31.87;;;;;;;4.70;100.00;103424.25;5000292;28;20440;-76
2022/01/25 08:56:09;;;;;;;46.43;31.83;;;;;;;4.19;100.00;103342.38;5000875;28;20464;-77
2022/01/25 08:58:35;;;;;;;48.90;32.70;;;;;;;4.79;100.00;103452.06;5009419;28;20188;-77
2022/01/25 09:01:00;;;;;;;43.90;32.30;;;;;;;4.15;100.00;103359.47;4985901;28;20222;-79
2022/01/25 09:03:26;;;;;;;46.80;31.97;;;;;;;4.67;100.00;103403.16;4993988;28;20949;-76
2022/01/25 09:05:53;;;;;;;46.73;32.83;;;;;;;5.01;100.00;103440.91;4986187;28;20439;-77
2022/01/25 09:08:21;;;;;;;46.10;32.47;;;;;;;5.12;100.00;103457.00;5005633;28;20264;-77
2022/01/25 09:10:57;;;;;;;51.97;33.03;;;;;;;4.76;100.00;103461.09;5004107;28;20447;-77
2022/01/25 09:13:23;;;;;;;43.73;31.40;;;;;;;4.28;100.00;103363.06;4995089;28;21402;-77
2022/01/25 09:15:49;;;;;;;51.43;33.73;;;;;;;4.06;100.00;103312.22;5000350;28;20460;-77
2022/01/25 09:18:14;;;;;;;47.27;31.40;;;;;;;4.39;100.00;103346.44;4999893;28;20450;-76
2022/01/25 09:20:40;;;;;;;50.30;31.43;;;;;;;4.28;100.00;103356.88;4997579;28;20575;-77
2022/01/25 09:23:06;;;;;;;44.00;31.30;;;;;;;4.14;100.00;103327.66;5001459;28;20200;-76
2022/01/25 09:25:32;;;;;;;46.87;33.73;;;;;;;4.48;100.00;103369.78;5010665;28;20215;-77
2022/01/25 09:27:58;;;;;;;48.90;33.37;;;;;;;4.21;100.00;103348.44;5014132;28;20215;-76
2022/01/25 09:30:23;;;;;;;48.33;31.70;;;;;;;4.63;100.00;103396.31;5005340;28;20455;-75
2022/01/25 09:32:49;;;;;;;48.77;31.63;;;;;;;5.18;100.00;103462.81;5004414;28;20498;-77
2022/01/25 09:35:15;;;;;;;50.03;33.37;;;;;;;4.86;100.00;103472.88;5002378;28;20212;-76
2022/01/25 09:37:40;;;;;;;47.77;32.07;;;;;;;4.28;100.00;103379.00;5005114;28;20642;-76
2022/01/25 09:40:07;;;;;;;48.87;32.87;;;;;;;4.82;100.00;103476.66;4999564;28;20194;-76
2022/01/25 09:42:32;;;;;;;49.63;33.43;;;;;;;3.98;100.00;103315.34;4990009;28;20188;-76
2022/01/25 09:44:59;;;;;;;45.03;33.60;;;;;;;4.12;100.00;103330.44;5004677;28;20478;-76
2022/01/25 09:47:25;;;;;;;49.97;33.70;;;;;;;4.50;100.00;103420.19;5004450;28;20642;-76
2022/01/25 09:49:50;;;;;;;50.43;35.13;;;;;;;4.03;100.00;103353.09;5009355;28;20454;-76
2022/01/25 09:52:17;;;;;;;51.00;34.30;;;;;;;4.95;100.00;103479.41;4992131;28;20658;-76
2022/01/25 09:54:53;;;;;;;48.40;32.77;;;;;;;4.84;100.00;103482.72;5008693;28;20958;-75
2022/01/25 09:57:19;;;;;;;51.17;33.30;;;;;;;4.75;100.00;103472.69;5000628;28;20443;-77
2022/01/25 09:59:44;;;;;;;49.23;33.30;;;;;;;4.79;100.00;103447.59;4994889;28;20440;-76
2022/01/25 10:02:10;;;;;;;53.03;33.27;;;;;;;4.55;100.00;103435.84;5000503;28;20188;-76
2022/01/25 10:04:41;;;;;;;53.10;33.10;;;;;;;4.66;100.00;103466.13;5001109;28;20220;-75
2022/01/25 10:07:09;;;;;;;47.13;33.07;;;;;;;4.46;100.00;103421.34;4995915;28;20549;-75
2022/01/25 10:09:42;;;;;;;50.67;33.87;;;;;;;4.74;100.00;103476.25;4995420;28;20651;-75
2022/01/25 10:12:23;;;;;;;49.60;32.60;;;;;;;4.38;100.00;103395.22;4983673;28;20479;-75
2022/01/25 10:15:00;;;;;;;52.13;33.53;;;;;;;4.92;100.00;103498.22;4989190;28;20951;-75
2022/01/25 10:17:34;;;;;;;53.50;34.23;;;;;;;4.66;100.00;103457.31;4975691;28;20551;-75
2022/01/25 10:19:59;;;;;;;52.10;33.23;;;;;;;4.52;100.00;103440.41;5006075;28;20940;-76
2022/01/25 10:22:25;;;;;;;45.37;31.10;;;;;;;4.94;100.00;103510.44;5000674;28;20463;-76
2022/01/25 10:24:51;;;;;;;52.13;34.37;;;;;;;4.75;100.00;103500.13;5005077;28;20218;-75
2022/01/25 10:27:21;;;;;;;53.73;32.93;;;;;;;4.40;100.00;103427.03;5007403;28;20800;-75
2022/01/25 10:29:48;;;;;;;50.23;33.00;;;;;;;4.92;100.00;103508.84;5003743;28;20237;-74
2022/01/25 10:32:14;;;;;;;47.87;32.53;;;;;;;3.88;100.00;103316.88;5005572;28;20446;-75
2022/01/25 10:34:48;;;;;;;50.57;34.27;;;;;;;5.06;100.00;103510.63;5008225;28;20481;-76
2022/01/25 10:37:18;;;;;;;50.93;33.67;;;;;;;4.74;100.00;103471.84;5007943;28;20435;-76
2022/01/25 10:39:46;;;;;;;48.27;31.43;;;;;;;4.89;100.00;103515.22;5006824;28;20450;-75
2022/01/25 10:42:18;;;;;;;49.23;33.73;;;;;;;4.65;100.00;103498.13;5002217;28;20467;-76
2022/01/25 10:44:56;;;;;;;50.50;33.87;;;;;;;4.58;100.00;103468.41;5000959;28;20476;-75
2022/01/25 10:47:44;;;;;;;53.07;34.97;;;;;;;4.83;100.00;103507.63;4991184;28;20441;-76
2022/01/25 10:50:16;;;;;;;56.43;34.77;;;;;;;4.76;100.00;103503.63;5004922;28;20967;-75
2022/01/25 10:52:42;;;;;;;56.77;35.33;;;;;;;4.42;100.00;103428.63;5006228;28;20470;-74
2022/01/25 10:55:08;;;;;;;48.90;35.17;;;;;;;4.75;100.00;103485.97;4982786;28;20481;-75
2022/01/25 10:57:34;;;;;;;51.27;32.17;;;;;;;4.24;100.00;103398.72;4989594;28;20450;-75
2022/01/25 11:00:07;;;;;;;52.43;34.87;;;;;;;4.16;100.00;103386.88;5003657;28;20444;-75
2022/01/25 11:02:34;;;;;;;51.50;34.00;;;;;;;4.85;100.00;103502.19;5000891;28;20181;-75
2022/01/25 11:05:08;;;;;;;46.37;31.57;;;;;;;4.76;100.00;103485.00;5002068;28;20512;-74
2022/01/25 11:07:40;;;;;;;46.63;32.20;;;;;;;4.78;100.00;103515.03;5003052;28;20680;-74
2022/01/25 11:10:08;;;;;;;56.20;37.70;;;;;;;4.64;100.00;103483.13;5010096;28;20470;-74
2022/01/25 11:12:40;;;;;;;48.20;33.13;;;;;;;4.39;100.00;103447.41;4997670;28;20451;-74
2022/01/25 11:15:06;;;;;;;50.00;34.23;;;;;;;4.45;100.00;103454.16;5001911;28;20821;-74
2022/01/25 11:17:33;;;;;;;52.40;35.40;;;;;;;4.60;100.00;103498.41;4994846;28;20494;-73
2022/01/25 11:20:01;;;;;;;53.47;35.30;;;;;;;4.04;100.00;103384.00;5001633;28;20758;-74
2022/01/25 11:22:27;;;;;;;53.27;36.00;;;;;;;4.73;100.00;103490.53;5008023;28;20430;-77
2022/01/25 11:25:03;;;;;;;54.73;35.20;;;;;;;4.46;100.00;103462.03;5006679;28;20467;-73
2022/01/25 11:27:30;;;;;;;53.33;34.97;;;;;;;4.59;100.00;103490.53;4975093;28;20481;-74
2022/01/25 11:29:59;;;;;;;50.27;33.20;;;;;;;4.58;100.00;103479.03;4998354;28;20437;-74
2022/01/25 11:32:28;;;;;;;55.10;34.60;;;;;;;4.03;100.00;103374.34;5000907;28;20443;-74
2022/01/25 11:34:55;;;;;;;51.97;34.73;;;;;;;4.56;100.00;103458.81;4999496;28;21059;-74
2022/01/25 11:37:33;;;;;;;52.40;33.53;;;;;;;4.26;100.00;103417.25;5003573;28;20446;-75
2022/01/25 11:39:59;;;;;;;52.20;34.30;;;;;;;4.68;100.00;103476.66;5003111;28;20435;-75
2022/01/25 11:42:26;;;;;;;54.93;34.20;;;;;;;4.74;100.00;103445.25;5000222;28;20445;-75
2022/01/25 11:44:57;;;;;;;59.53;36.03;;;;;;;4.20;100.00;103380.44;5006912;28;20216;-74
2022/01/25 11:47:30;;;;;;;53.63;32.77;;;;;;;4.44;100.00;103434.69;5001359;28;20439;-75
2022/01/25 11:49:59;;;;;;;50.43;33.33;;;;;;;4.82;100.00;103460.69;5002388;28;20440;-75
2022/01/25 11:52:26;;;;;;;49.53;33.57;;;;;;;4.22;100.00;103391.78;5005974;28;20499;-74
2022/01/25 11:55:13;;;;;;;52.27;35.03;;;;;;;4.85;100.00;103459.66;4988177;28;20463;-74
2022/01/25 11:57:56;;;;;;;57.30;35.23;;;;;;;4.80;100.00;103424.50;5005300;28;20562;-75
2022/01/25 12:00:51;;;;;;;54.47;35.53;;;;;;;4.95;100.00;103456.31;5004993;28;20497;-75
2022/01/25 12:03:30;;;;;;;54.60;35.13;;;;;;;5.05;100.00;103451.25;5006245;28;20948;-75
2022/01/25 12:06:14;;;;;;;58.13;34.23;;;;;;;5.02;100.00;103447.94;4997005;28;20997;-75
2022/01/25 12:08:52;;;;;;;58.07;36.97;;;;;;;4.78;100.00;103448.56;4999713;28;20680;-74
2022/01/25 12:11:51;;;;;;;48.60;34.43;;;;;;;4.74;100.00;103444.34;5006394;28;20466;-76
2022/01/25 12:17:01;;;;;;;60.30;34.00;;;;;;;4.90;100.00;103433.63;5017071;28;20501;-78
2022/01/25 12:19:49;;;;;;;53.40;35.20;;;;;;;4.87;100.00;103434.66;5018220;28;20525;-78
2022/01/25 12:22:40;;;;;;;54.10;35.73;;;;;;;4.79;100.00;103436.09;5017032;28;20554;-77
2022/01/25 12:25:37;;;;;;;53.37;34.80;;;;;;;4.93;100.00;103444.91;5003957;28;20858;-76
2022/01/25 12:28:08;;;;;;;58.20;35.03;;;;;;;4.60;100.00;103400.06;5013438;28;20446;-76
2022/01/25 12:30:45;;;;;;;48.17;32.63;;;;;;;4.38;100.00;103341.22;5021047;28;20465;-77
2022/01/25 12:33:24;;;;;;;46.60;30.53;;;;;;;4.16;100.00;103358.50;4989060;28;20451;-76
2022/01/25 12:36:03;;;;;;;56.10;32.53;;;;;;;4.63;100.00;103434.44;5011094;28;20466;-76
2022/01/25 12:38:49;;;;;;;53.27;33.20;;;;;;;3.98;100.00;103307.38;5018658;28;20494;-76
2022/01/25 12:41:27;;;;;;;48.63;32.17;;;;;;;4.70;100.00;103438.38;5017598;28;20426;-76
2022/01/25 12:43:55;;;;;;;52.60;33.17;;;;;;;4.85;100.00;103431.25;5018558;28;20553;-75
2022/01/25 12:46:25;;;;;;;53.57;32.97;;;;;;;4.69;100.00;103427.88;5018328;28;20470;-76
2022/01/25 12:48:54;;;;;;;51.80;32.07;;;;;;;4.50;100.00;103405.06;5018032;28;20522;-76
2022/01/25 12:51:25;;;;;;;52.80;33.50;;;;;;;4.45;100.00;103372.63;5018351;28;20443;-76
2022/01/25 12:53:53;;;;;;;54.23;33.70;;;;;;;4.91;100.00;103412.22;5006705;28;20818;-77
2022/01/25 12:56:36;;;;;;;48.93;32.30;;;;;;;4.54;100.00;103373.84;5005156;28;20489;-76
2022/01/25 12:59:07;;;;;;;56.63;32.30;;;;;;;4.14;100.00;103287.81;5014830;28;21247;-76
2022/01/25 13:01:36;;;;;;;46.63;32.30;;;;;;;5.33;100.00;103413.06;5021268;28;20524;-77
2022/01/25 13:04:04;;;;;;;54.77;33.37;;;;;;;4.56;100.00;103355.16;5016844;28;20462;-77
2022/01/25 13:06:35;;;;;;;50.70;30.70;;;;;;;3.96;100.00;103240.22;5019527;28;20450;-77